Time;durP1;ratioP1;P1;durP2;ratioP2;P2;SDS_P1;SDS_P2;PMS_P1;PMS_P2;Temp;Humidity;BMP_temperature;BMP_pressure;BME280_temperature;BME280_humidity;BME280_pressure;Samples;Min_cycle;Max_cycle;Signal;HPM_P1;HPM_P2
2022/10/06 00:01:59;;;;;;;25.37;21.90;;;17.70;99.90;;;;;;6301698;22;20175;-95
2022/10/06 00:04:30;;;;;;;28.07;23.50;;;17.80;99.90;;;;;;6302246;22;20183;-95
2022/10/06 00:07:04;;;;;;;30.97;23.43;;;17.80;99.90;;;;;;6298172;22;20170;-95
2022/10/06 00:09:40;;;;;;;24.60;21.07;;;17.70;99.90;;;;;;6288536;22;20199;-96
2022/10/06 00:12:12;;;;;;;25.53;22.33;;;17.70;99.90;;;;;;6281557;22;20170;-95
2022/10/06 00:14:45;;;;;;;29.37;23.33;;;17.60;99.90;;;;;;6283080;22;20175;-96
2022/10/06 00:17:18;;;;;;;26.60;22.70;;;17.40;99.90;;;;;;6284291;22;20175;-95
2022/10/06 00:19:49;;;;;;;28.60;22.50;;;17.50;99.90;;;;;;6281147;22;20194;-96
2022/10/06 00:22:21;;;;;;;26.87;22.80;;;17.50;99.90;;;;;;6279540;22;20244;-90
2022/10/06 00:24:54;;;;;;;27.80;22.27;;;17.40;99.90;;;;;;6276057;22;20175;-89
2022/10/06 00:27:25;;;;;;;24.63;21.20;;;17.30;99.90;;;;;;6280117;22;20171;-91
2022/10/06 00:29:58;;;;;;;26.73;20.57;;;17.30;99.90;;;;;;6278690;22;20197;-91
2022/10/06 00:32:29;;;;;;;25.90;21.40;;;17.20;99.90;;;;;;6280388;22;20175;-88
2022/10/06 00:35:00;;;;;;;23.43;20.67;;;17.20;99.90;;;;;;6288209;22;20159;-94
2022/10/06 00:37:34;;;;;;;26.23;21.13;;;17.10;99.90;;;;;;6303074;22;20198;-94
2022/10/06 00:40:08;;;;;;;24.87;22.17;;;17.00;99.90;;;;;;6303160;22;20181;-94
2022/10/06 00:42:53;;;;;;;24.50;20.53;;;17.00;99.90;;;;;;6302720;22;20194;-92
2022/10/06 00:45:31;;;;;;;25.70;21.33;;;16.90;99.90;;;;;;6295265;22;20221;-93
2022/10/06 00:48:08;;;;;;;24.90;21.20;;;16.80;99.90;;;;;;6280165;22;20163;-93
2022/10/06 00:50:39;;;;;;;25.03;20.50;;;16.80;99.90;;;;;;6281381;22;20518;-94
2022/10/06 00:53:12;;;;;;;25.77;21.20;;;16.70;99.90;;;;;;6278474;22;20270;-93
2022/10/06 00:55:43;;;;;;;25.57;21.17;;;16.60;99.90;;;;;;6279315;22;20291;-93
2022/10/06 00:58:15;;;;;;;24.97;22.33;;;16.60;99.90;;;;;;6278606;22;20167;-93
2022/10/06 01:00:53;;;;;;;26.57;21.20;;;16.50;99.90;;;;;;6279017;22;20167;-95
2022/10/06 01:03:28;;;;;;;24.40;21.30;;;16.40;99.90;;;;;;6280105;22;20569;-87
2022/10/06 01:06:01;;;;;;;24.30;20.73;;;16.40;99.90;;;;;;6276686;22;20201;-88
2022/10/06 01:08:34;;;;;;;25.10;21.37;;;16.30;99.90;;;;;;6280935;22;20185;-91
2022/10/06 01:11:08;;;;;;;27.87;23.23;;;16.20;99.90;;;;;;6279592;22;20174;-95
2022/10/06 01:13:45;;;;;;;27.83;22.43;;;16.10;99.90;;;;;;6282180;22;20178;-95
2022/10/06 01:16:27;;;;;;;26.73;21.90;;;16.10;99.90;;;;;;6283159;22;20181;-96
2022/10/06 01:18:58;;;;;;;26.77;22.87;;;16.00;99.90;;;;;;6284357;22;20185;-95
2022/10/06 01:21:38;;;;;;;26.03;22.77;;;15.90;99.90;;;;;;6284856;22;20228;-96
2022/10/06 01:24:12;;;;;;;27.63;23.37;;;15.80;99.90;;;;;;6284180;22;20185;-96
2022/10/06 01:26:50;;;;;;;26.43;23.43;;;15.80;99.90;;;;;;6288625;22;20186;-95
2022/10/06 01:29:23;;;;;;;28.07;24.20;;;15.60;99.90;;;;;;6287255;22;20214;-94
2022/10/06 01:31:54;;;;;;;28.70;24.23;;;15.60;99.90;;;;;;6288193;22;20190;-95
2022/10/06 01:34:27;;;;;;;29.27;24.83;;;15.50;99.90;;;;;;6284723;22;20171;-95
2022/10/06 01:37:02;;;;;;;31.43;25.50;;;15.40;99.90;;;;;;6281744;22;20246;-96
2022/10/06 01:39:39;;;;;;;29.73;24.07;;;15.40;99.90;;;;;;6287369;22;20175;-95
2022/10/06 01:42:11;;;;;;;28.33;24.10;;;15.30;99.90;;;;;;6279196;22;20250;-95
2022/10/06 01:44:43;;;;;;;27.60;24.40;;;15.20;99.90;;;;;;6278999;22;20202;-94
2022/10/06 01:47:15;;;;;;;27.30;24.23;;;15.10;99.90;;;;;;6279076;22;20614;-95
2022/10/06 01:49:46;;;;;;;32.03;25.90;;;15.00;99.90;;;;;;6278529;22;20202;-95
2022/10/06 01:52:19;;;;;;;32.17;25.00;;;14.90;99.90;;;;;;6278157;22;20171;-95
2022/10/06 01:54:51;;;;;;;31.77;26.00;;;14.80;99.90;;;;;;6278902;22;20262;-95
2022/10/06 01:57:23;;;;;;;31.33;25.70;;;14.70;99.90;;;;;;6278665;22;20234;-95
2022/10/06 01:59:55;;;;;;;33.33;26.27;;;14.70;99.90;;;;;;6284805;22;20171;-96
2022/10/06 02:02:26;;;;;;;30.07;24.60;;;14.60;99.90;;;;;;6282469;22;20160;-95
2022/10/06 02:04:57;;;;;;;31.33;24.93;;;14.60;99.90;;;;;;6282041;22;20179;-94
2022/10/06 02:07:28;;;;;;;31.97;25.13;;;14.50;99.90;;;;;;6278434;22;20182;-94
2022/10/06 02:10:01;;;;;;;31.07;24.60;;;14.40;99.90;;;;;;6278022;22;20209;-96
2022/10/06 02:12:33;;;;;;;30.53;25.53;;;14.30;99.90;;;;;;6278624;22;20178;-95
2022/10/06 02:15:07;;;;;;;31.30;25.27;;;14.30;99.90;;;;;;6275757;22;20195;-96
2022/10/06 02:17:39;;;;;;;34.63;26.00;;;14.20;99.90;;;;;;6277674;22;20171;-96
2022/10/06 02:20:10;;;;;;;32.57;25.60;;;14.10;99.90;;;;;;6278752;22;20206;-94
2022/10/06 02:22:42;;;;;;;31.07;24.80;;;14.10;99.90;;;;;;6277359;22;20870;-95
2022/10/06 02:25:16;;;;;;;32.43;26.20;;;14.00;99.90;;;;;;6278745;22;20171;-94
2022/10/06 02:27:48;;;;;;;31.00;25.80;;;14.00;99.90;;;;;;6279947;22;20250;-94
2022/10/06 02:30:20;;;;;;;32.40;25.67;;;14.00;99.90;;;;;;6298701;22;20230;-95
2022/10/06 02:32:52;;;;;;;34.30;25.77;;;13.90;99.90;;;;;;6294583;22;20171;-96
2022/10/06 02:35:25;;;;;;;33.60;26.77;;;13.90;99.90;;;;;;6280454;22;20240;-95
2022/10/06 02:38:07;;;;;;;33.03;27.33;;;13.80;99.90;;;;;;6279434;22;20194;-95
2022/10/06 02:40:44;;;;;;;36.03;27.87;;;13.70;99.90;;;;;;6283279;22;20178;-95
2022/10/06 02:43:16;;;;;;;36.53;27.97;;;13.70;99.90;;;;;;6280014;22;20182;-96
2022/10/06 02:45:55;;;;;;;33.13;27.37;;;13.70;99.90;;;;;;6280732;22;20170;-96
2022/10/06 02:48:27;;;;;;;34.50;27.00;;;13.70;99.90;;;;;;6279622;22;20609;-94
2022/10/06 02:51:00;;;;;;;33.57;27.03;;;13.60;99.90;;;;;;6282836;22;20217;-95
2022/10/06 02:53:32;;;;;;;35.27;27.50;;;13.50;99.90;;;;;;6283176;22;20178;-95
2022/10/06 02:56:07;;;;;;;34.57;26.77;;;13.50;99.90;;;;;;6283023;22;20610;-90
2022/10/06 02:58:39;;;;;;;36.10;28.03;;;13.50;99.90;;;;;;6280274;22;20250;-91
2022/10/06 03:01:12;;;;;;;35.67;27.30;;;13.50;99.90;;;;;;6300833;22;20194;-91
2022/10/06 03:03:45;;;;;;;35.87;28.37;;;13.40;99.90;;;;;;6301114;22;20210;-89
2022/10/06 03:06:23;;;;;;;36.57;29.67;;;13.40;99.90;;;;;;6303062;22;20205;-90
2022/10/06 03:08:57;;;;;;;39.30;30.00;;;13.40;99.90;;;;;;6291693;22;20191;-91
2022/10/06 03:11:32;;;;;;;40.33;29.63;;;13.40;99.90;;;;;;6287875;22;20574;-90
2022/10/06 03:14:03;;;;;;;42.90;29.97;;;13.40;99.90;;;;;;6288698;22;20225;-90
2022/10/06 03:16:37;;;;;;;38.90;29.87;;;13.30;99.90;;;;;;6286004;22;20193;-91
2022/10/06 03:19:09;;;;;;;40.03;31.33;;;13.30;99.90;;;;;;6289480;22;20174;-92
2022/10/06 03:21:42;;;;;;;44.40;31.37;;;13.30;99.90;;;;;;6286798;22;20254;-94
2022/10/06 03:24:14;;;;;;;37.57;29.87;;;13.30;99.90;;;;;;6287351;22;20226;-91
2022/10/06 03:26:48;;;;;;;41.17;31.50;;;13.30;99.90;;;;;;6283338;22;20175;-91
2022/10/06 03:29:19;;;;;;;39.97;31.17;;;13.20;99.90;;;;;;6278996;22;20648;-91
2022/10/06 03:31:50;;;;;;;40.00;30.60;;;13.20;99.90;;;;;;6276976;22;20343;-91
2022/10/06 03:34:21;;;;;;;38.13;29.83;;;13.20;99.90;;;;;;6279363;22;20181;-91
2022/10/06 03:36:52;;;;;;;38.63;31.20;;;13.20;99.90;;;;;;6278239;22;20625;-90
2022/10/06 03:39:23;;;;;;;40.83;30.77;;;13.20;99.90;;;;;;6278827;22;20178;-91
2022/10/06 03:41:56;;;;;;;40.07;30.53;;;13.10;99.90;;;;;;6281586;22;20185;-90
2022/10/06 03:44:28;;;;;;;36.77;29.90;;;13.10;99.90;;;;;;6283082;22;20171;-89
2022/10/06 03:46:59;;;;;;;41.40;31.63;;;13.10;99.90;;;;;;6278197;22;20648;-89
2022/10/06 03:49:30;;;;;;;38.80;31.40;;;13.10;99.90;;;;;;6278686;22;20179;-91
2022/10/06 03:52:01;;;;;;;41.37;31.43;;;13.10;99.90;;;;;;6277868;22;20262;-90
2022/10/06 03:54:32;;;;;;;44.07;30.77;;;13.00;99.90;;;;;;6279193;22;20635;-91
2022/10/06 03:57:05;;;;;;;39.77;28.97;;;13.00;99.90;;;;;;6278758;22;20246;-92
2022/10/06 03:59:36;;;;;;;42.97;31.87;;;12.90;99.90;;;;;;6280680;22;20243;-91
2022/10/06 04:02:07;;;;;;;44.97;32.63;;;12.90;99.90;;;;;;6276599;22;20273;-91
2022/10/06 04:04:39;;;;;;;40.37;31.23;;;12.90;99.90;;;;;;6277835;22;20239;-90
2022/10/06 04:07:10;;;;;;;42.43;33.10;;;12.90;99.90;;;;;;6277288;22;20202;-90
2022/10/06 04:09:42;;;;;;;43.07;31.53;;;12.90;99.90;;;;;;6277852;22;20186;-91
2022/10/06 04:12:15;;;;;;;47.10;34.23;;;12.90;99.90;;;;;;6277158;22;20209;-90
2022/10/06 04:14:46;;;;;;;44.97;33.10;;;12.80;99.90;;;;;;6278016;22;20165;-90
2022/10/06 04:17:17;;;;;;;42.37;31.67;;;12.80;99.90;;;;;;6277551;22;20211;-91
2022/10/06 04:19:48;;;;;;;47.57;33.00;;;12.80;99.90;;;;;;6279687;22;20171;-91
2022/10/06 04:22:19;;;;;;;45.47;33.10;;;12.80;99.90;;;;;;6287851;22;20223;-91
2022/10/06 04:24:50;;;;;;;48.43;33.83;;;12.80;99.90;;;;;;6288780;22;20160;-90
2022/10/06 04:27:29;;;;;;;43.90;32.77;;;12.70;99.90;;;;;;6289488;22;20374;-90
2022/10/06 04:30:00;;;;;;;40.57;32.20;;;12.70;99.90;;;;;;6280792;22;20186;-90
2022/10/06 04:32:31;;;;;;;43.07;33.13;;;12.70;99.90;;;;;;6276199;22;20203;-90
2022/10/06 04:35:02;;;;;;;48.83;35.13;;;12.70;99.90;;;;;;6278263;22;20182;-89
2022/10/06 04:37:33;;;;;;;49.73;34.47;;;12.60;99.90;;;;;;6278092;22;20193;-92
2022/10/06 04:40:05;;;;;;;49.30;35.77;;;12.60;99.90;;;;;;6278289;22;20198;-90
2022/10/06 04:42:39;;;;;;;50.50;35.93;;;12.60;99.90;;;;;;6277538;22;20189;-90
2022/10/06 04:45:12;;;;;;;49.23;35.60;;;12.60;99.90;;;;;;6280886;22;20260;-90
2022/10/06 04:47:44;;;;;;;51.87;38.57;;;12.60;99.90;;;;;;6280404;22;20183;-90
2022/10/06 04:50:16;;;;;;;51.03;37.60;;;12.60;99.90;;;;;;6280991;22;20259;-89
2022/10/06 04:52:47;;;;;;;52.20;37.37;;;12.60;99.90;;;;;;6275961;22;20290;-90
2022/10/06 04:55:18;;;;;;;53.80;37.47;;;12.60;99.90;;;;;;6286107;22;20179;-90
2022/10/06 04:57:51;;;;;;;52.83;39.07;;;12.60;99.90;;;;;;6280018;22;20167;-89
2022/10/06 05:00:25;;;;;;;52.57;38.27;;;12.60;99.90;;;;;;6276587;22;20181;-89
2022/10/06 05:02:56;;;;;;;50.37;37.43;;;12.50;99.90;;;;;;6276371;22;20171;-90
2022/10/06 05:05:27;;;;;;;54.20;38.90;;;12.50;99.90;;;;;;6277621;22;20262;-90
2022/10/06 05:07:59;;;;;;;53.33;38.53;;;12.50;99.90;;;;;;6277242;22;20170;-91
2022/10/06 05:10:30;;;;;;;52.83;37.80;;;12.50;99.90;;;;;;6277821;22;20510;-90
2022/10/06 05:13:04;;;;;;;54.03;39.30;;;12.50;99.90;;;;;;6274281;22;20178;-90
2022/10/06 05:15:37;;;;;;;56.80;38.93;;;12.50;99.90;;;;;;6277450;22;20170;-89
2022/10/06 05:18:08;;;;;;;57.10;39.20;;;12.50;99.90;;;;;;6277613;22;20175;-91
2022/10/06 05:20:39;;;;;;;53.67;38.33;;;12.50;99.90;;;;;;6278329;22;20194;-90
2022/10/06 05:23:10;;;;;;;51.50;38.00;;;12.50;99.90;;;;;;6278602;22;20205;-90
2022/10/06 05:25:50;;;;;;;50.00;36.23;;;12.50;99.90;;;;;;6279516;22;20171;-90
2022/10/06 05:28:24;;;;;;;52.83;37.33;;;12.50;99.90;;;;;;6290108;22;20163;-90
2022/10/06 05:30:57;;;;;;;52.47;38.27;;;12.40;99.90;;;;;;6299868;22;20174;-92
2022/10/06 05:33:29;;;;;;;55.13;39.40;;;12.40;99.90;;;;;;6298865;22;20227;-91
2022/10/06 05:36:03;;;;;;;52.13;37.10;;;12.40;99.90;;;;;;6287872;22;20167;-91
2022/10/06 05:38:34;;;;;;;50.30;37.27;;;12.40;99.90;;;;;;6279300;22;20175;-90
2022/10/06 05:41:07;;;;;;;48.77;36.80;;;12.40;99.90;;;;;;6293471;22;20190;-90
2022/10/06 05:43:42;;;;;;;57.47;36.87;;;12.30;99.90;;;;;;6301202;22;20221;-92
2022/10/06 05:46:18;;;;;;;51.40;38.43;;;12.30;99.90;;;;;;6300422;22;20206;-88
2022/10/06 05:48:50;;;;;;;52.57;37.47;;;12.30;99.90;;;;;;6301206;22;20154;-91
2022/10/06 05:51:23;;;;;;;56.03;39.30;;;12.20;99.90;;;;;;6289803;22;20195;-89
2022/10/06 05:53:59;;;;;;;55.80;39.53;;;12.30;99.90;;;;;;6277136;22;20231;-90
2022/10/06 05:56:32;;;;;;;56.40;39.97;;;12.20;99.90;;;;;;6277639;22;20178;-90
2022/10/06 05:59:06;;;;;;;56.60;39.37;;;12.20;99.90;;;;;;6280880;22;20194;-89
2022/10/06 06:01:39;;;;;;;56.47;39.50;;;12.20;99.90;;;;;;6281721;22;20175;-92
2022/10/06 06:04:12;;;;;;;53.77;38.87;;;12.20;99.90;;;;;;6281187;22;20528;-90
2022/10/06 06:06:45;;;;;;;57.47;40.70;;;12.20;99.90;;;;;;6278263;22;20169;-91
2022/10/06 06:09:18;;;;;;;60.73;41.90;;;12.20;99.90;;;;;;6278876;22;20171;-91
2022/10/06 06:11:51;;;;;;;57.77;39.57;;;12.20;99.90;;;;;;6277846;22;20205;-91
2022/10/06 06:15:59;;;;;;;58.57;40.60;;;12.20;99.90;;;;;;6279820;22;20501;-90
2022/10/06 06:17:15;;;;;;;60.70;41.80;;;12.10;99.90;;;;;;6278764;22;20171;-90
2022/10/06 06:19:46;;;;;;;61.30;42.17;;;12.10;99.90;;;;;;6279897;22;20964;-91
2022/10/06 06:22:17;;;;;;;60.63;42.00;;;12.10;99.90;;;;;;6278650;22;20508;-90
2022/10/06 06:24:48;;;;;;;56.37;41.30;;;12.10;99.90;;;;;;6278931;22;20182;-88
2022/10/06 06:27:19;;;;;;;60.57;42.03;;;12.10;99.90;;;;;;6280584;22;20170;-89
2022/10/06 06:29:53;;;;;;;61.97;42.33;;;12.10;99.90;;;;;;6278993;22;20205;-91
2022/10/06 06:32:23;;;;;;;57.17;41.90;;;12.10;99.90;;;;;;6279672;22;20202;-90
2022/10/06 06:34:54;;;;;;;59.17;40.93;;;12.10;99.90;;;;;;6280135;22;20175;-91
2022/10/06 06:37:25;;;;;;;61.13;42.37;;;12.00;99.90;;;;;;6279747;22;20201;-91
2022/10/06 06:39:57;;;;;;;60.93;43.97;;;12.00;99.90;;;;;;6279967;22;20186;-91
2022/10/06 06:42:28;;;;;;;70.27;46.43;;;12.00;99.90;;;;;;6277971;22;20179;-89
2022/10/06 06:45:00;;;;;;;69.83;45.10;;;12.00;99.90;;;;;;6279699;22;20186;-90
2022/10/06 06:47:33;;;;;;;66.37;44.47;;;12.00;99.90;;;;;;6279054;22;20171;-90
2022/10/06 06:50:09;;;;;;;65.83;44.33;;;12.00;99.90;;;;;;6279628;22;20164;-91
2022/10/06 06:52:40;;;;;;;60.93;43.03;;;12.00;99.90;;;;;;6277162;22;20202;-90
2022/10/06 06:55:11;;;;;;;65.87;43.90;;;11.90;99.90;;;;;;6279214;22;20177;-90
2022/10/06 06:57:42;;;;;;;65.83;45.27;;;11.90;99.90;;;;;;6278330;22;20178;-91
2022/10/06 07:00:16;;;;;;;63.60;44.80;;;12.00;99.90;;;;;;6279664;22;20182;-90
2022/10/06 07:02:54;;;;;;;70.23;46.60;;;12.00;99.90;;;;;;6277781;22;20175;-90
2022/10/06 07:05:26;;;;;;;74.03;47.93;;;11.90;99.90;;;;;;6279317;22;20185;-90
2022/10/06 07:07:57;;;;;;;71.23;46.00;;;11.90;99.90;;;;;;6278205;22;20171;-90
2022/10/06 07:10:30;;;;;;;65.67;45.33;;;11.90;99.90;;;;;;6279228;22;20186;-91
2022/10/06 07:13:01;;;;;;;69.60;46.80;;;11.90;99.90;;;;;;6277599;22;20203;-91
2022/10/06 07:26:47;;;;;;;66.10;45.43;;;11.80;99.90;;;;;;6279020;22;20159;-89
2022/10/06 07:29:18;;;;;;;71.67;47.87;;;11.80;99.90;;;;;;6278708;22;20171;-90
2022/10/06 07:31:51;;;;;;;73.53;47.97;;;11.80;99.90;;;;;;6275770;22;20630;-90
2022/10/06 07:34:22;;;;;;;71.73;48.60;;;11.80;99.90;;;;;;6278610;22;20486;-91
2022/10/06 07:36:54;;;;;;;72.27;48.07;;;11.80;99.90;;;;;;6282090;22;20175;-89
2022/10/06 07:39:26;;;;;;;71.17;46.37;;;11.80;99.90;;;;;;6278241;22;20186;-90
2022/10/06 07:41:56;;;;;;;70.90;48.07;;;11.80;99.90;;;;;;6278837;22;20509;-90
2022/10/06 07:44:28;;;;;;;78.67;49.47;;;11.80;99.90;;;;;;6282020;22;20185;-89
2022/10/06 07:47:02;;;;;;;71.23;47.30;;;11.80;99.90;;;;;;6282063;22;20201;-90
2022/10/06 07:49:33;;;;;;;71.53;48.53;;;11.70;99.90;;;;;;6279726;22;20171;-89
2022/10/06 07:52:04;;;;;;;72.60;48.80;;;11.70;99.90;;;;;;6279729;22;20449;-90
2022/10/06 07:54:35;;;;;;;75.13;47.83;;;11.70;99.90;;;;;;6278211;22;20171;-90
2022/10/06 07:57:06;;;;;;;71.83;47.33;;;11.70;99.90;;;;;;6281221;22;20175;-90
2022/10/06 07:59:37;;;;;;;73.60;47.57;;;11.70;99.90;;;;;;6280600;22;20506;-91
2022/10/06 08:02:10;;;;;;;71.23;47.37;;;11.70;99.90;;;;;;6280205;22;20256;-91
2022/10/06 08:04:41;;;;;;;72.07;47.53;;;11.70;99.90;;;;;;6281864;22;20194;-90
2022/10/06 08:07:13;;;;;;;72.27;47.63;;;11.70;99.90;;;;;;6278483;22;20175;-91
2022/10/06 08:09:44;;;;;;;71.30;46.87;;;11.70;99.90;;;;;;6279271;22;20238;-90
2022/10/06 08:12:36;;;;;;;72.47;46.13;;;11.70;99.90;;;;;;6278096;22;20274;-91
2022/10/06 08:15:10;;;;;;;74.90;48.10;;;11.70;99.90;;;;;;6278591;22;20262;-89
2022/10/06 08:17:44;;;;;;;67.40;46.80;;;11.70;99.90;;;;;;6278523;22;20621;-91
2022/10/06 08:20:17;;;;;;;66.37;46.37;;;11.70;99.90;;;;;;6278120;22;20273;-90
2022/10/06 08:22:49;;;;;;;68.27;47.23;;;11.70;99.90;;;;;;6277851;22;20240;-90
2022/10/06 08:25:20;;;;;;;72.70;48.10;;;11.60;99.90;;;;;;6278464;22;20183;-89
2022/10/06 08:27:52;;;;;;;66.87;45.53;;;11.60;99.90;;;;;;6278580;22;20179;-91
2022/10/06 08:30:26;;;;;;;63.80;44.60;;;11.60;99.90;;;;;;6278748;22;20182;-90
2022/10/06 08:32:59;;;;;;;68.70;46.10;;;11.60;99.90;;;;;;6276557;22;20252;-90
2022/10/06 08:35:31;;;;;;;65.67;44.20;;;11.50;99.90;;;;;;6278016;22;20183;-90
2022/10/06 08:38:01;;;;;;;67.57;45.10;;;11.60;99.90;;;;;;6278231;22;20226;-91
2022/10/06 08:40:34;;;;;;;67.80;45.17;;;11.50;99.90;;;;;;6278240;22;20159;-90
2022/10/06 08:43:12;;;;;;;69.50;44.50;;;11.50;99.90;;;;;;6276762;22;20175;-90
2022/10/06 08:45:46;;;;;;;69.03;45.63;;;11.50;99.90;;;;;;6276414;22;20181;-91
2022/10/06 08:48:28;;;;;;;63.80;44.07;;;11.50;99.90;;;;;;6278557;22;20175;-91
2022/10/06 08:51:17;;;;;;;65.67;43.70;;;11.40;99.90;;;;;;6278134;22;20182;-91
2022/10/06 08:53:59;;;;;;;65.77;43.30;;;11.40;99.90;;;;;;6277059;22;20203;-90
2022/10/06 08:56:36;;;;;;;66.73;44.60;;;11.40;99.90;;;;;;6278008;22;20186;-90
2022/10/06 08:59:10;;;;;;;69.07;44.27;;;11.30;99.90;;;;;;6277512;22;20193;-91
2022/10/06 09:01:46;;;;;;;61.97;43.63;;;11.30;99.90;;;;;;6277715;22;20253;-90
2022/10/06 09:04:27;;;;;;;67.80;46.23;;;11.30;99.90;;;;;;6278090;22;20312;-89
2022/10/06 09:07:03;;;;;;;60.80;43.00;;;11.20;99.90;;;;;;6275955;22;20170;-90
2022/10/06 09:09:52;;;;;;;67.97;43.67;;;11.20;99.90;;;;;;6278629;22;20494;-90
2022/10/06 09:12:32;;;;;;;66.47;44.07;;;11.20;99.90;;;;;;6277104;22;20167;-89
2022/10/06 09:15:18;;;;;;;65.27;43.47;;;11.20;99.90;;;;;;6277078;22;20250;-90
2022/10/06 09:17:54;;;;;;;65.23;41.77;;;11.20;99.90;;;;;;6277536;22;20171;-89
2022/10/06 09:20:32;;;;;;;61.50;42.13;;;11.20;99.90;;;;;;6277906;22;20613;-89
2022/10/06 09:23:08;;;;;;;65.33;42.33;;;11.20;99.90;;;;;;6277283;22;20201;-90
2022/10/06 09:25:39;;;;;;;63.40;41.67;;;11.20;99.90;;;;;;6276739;22;20202;-90
2022/10/06 09:28:15;;;;;;;57.87;38.47;;;11.20;99.90;;;;;;6278576;22;20223;-89
2022/10/06 09:30:47;;;;;;;56.13;37.50;;;11.20;99.90;;;;;;6277938;22;20167;-89
2022/10/06 09:33:25;;;;;;;54.53;36.53;;;11.20;99.90;;;;;;6278814;22;20222;-91
2022/10/06 09:36:09;;;;;;;47.53;32.73;;;11.20;99.90;;;;;;6276484;22;20209;-91
2022/10/06 09:38:55;;;;;;;49.10;33.30;;;11.20;99.90;;;;;;6281410;22;20194;-90
2022/10/06 09:41:30;;;;;;;45.00;30.70;;;11.20;99.90;;;;;;6279436;22;20171;-90
2022/10/06 09:44:04;;;;;;;43.57;29.03;;;11.20;99.90;;;;;;6281129;22;20628;-90
2022/10/06 09:46:40;;;;;;;38.10;28.03;;;11.30;99.90;;;;;;6279405;22;20174;-90
2022/10/06 09:49:19;;;;;;;41.37;28.50;;;11.30;99.90;;;;;;6278037;22;20181;-91
2022/10/06 09:52:10;;;;;;;43.73;29.20;;;11.40;99.90;;;;;;6278680;22;20221;-90
2022/10/06 09:54:42;;;;;;;41.70;29.17;;;11.40;99.90;;;;;;6280654;22;20202;-89
2022/10/06 09:57:18;;;;;;;39.43;29.10;;;11.40;99.90;;;;;;6281212;22;20565;-90
2022/10/06 09:59:49;;;;;;;51.57;29.27;;;11.50;99.90;;;;;;6283371;22;20226;-90
2022/10/06 10:02:35;;;;;;;40.73;28.47;;;11.50;99.90;;;;;;6276903;22;20241;-90
2022/10/06 10:05:17;;;;;;;56.93;30.37;;;11.50;99.90;;;;;;6277800;22;20198;-90
2022/10/06 10:08:03;;;;;;;47.63;28.87;;;11.60;99.90;;;;;;6286807;22;20163;-89
2022/10/06 10:10:35;;;;;;;44.93;29.27;;;11.60;99.90;;;;;;6282675;22;20166;-90
2022/10/06 10:13:20;;;;;;;97.00;27.20;;;11.60;99.90;;;;;;6277610;22;20232;-90
2022/10/06 10:15:55;;;;;;;38.50;27.70;;;11.60;99.90;;;;;;6277455;22;20182;-89
2022/10/06 10:18:29;;;;;;;40.43;26.50;;;11.60;99.90;;;;;;6278109;22;20182;-90
2022/10/06 10:21:03;;;;;;;64.43;25.60;;;11.70;99.90;;;;;;6278100;22;20175;-91
2022/10/06 10:23:39;;;;;;;35.47;26.03;;;11.70;99.90;;;;;;6274537;22;20174;-91
2022/10/06 10:26:37;;;;;;;34.63;24.90;;;11.70;99.90;;;;;;6277169;22;20171;-89
2022/10/06 10:29:49;;;;;;;31.30;24.53;;;11.80;99.90;;;;;;6277279;22;20228;-89
2022/10/06 10:32:26;;;;;;;31.17;23.83;;;11.90;99.90;;;;;;6183838;23;20191;-89
2022/10/06 10:35:05;;;;;;;27.83;23.30;;;11.90;99.90;;;;;;6184027;23;20224;-89
2022/10/06 10:37:43;;;;;;;27.30;22.20;;;12.00;99.90;;;;;;6245496;22;20170;-89
2022/10/06 10:40:46;;;;;;;29.13;23.23;;;12.00;99.90;;;;;;6277972;22;20165;-89
2022/10/06 10:43:30;;;;;;;32.17;23.63;;;12.00;99.90;;;;;;6273821;22;20618;-90
2022/10/06 10:46:06;;;;;;;30.20;23.43;;;12.10;99.90;;;;;;6277693;22;20171;-89
2022/10/06 10:48:43;;;;;;;37.30;26.40;;;12.20;99.90;;;;;;6277622;22;20184;-90
2022/10/06 10:51:21;;;;;;;35.60;25.63;;;12.20;99.90;;;;;;6278085;22;20181;-89
2022/10/06 10:53:55;;;;;;;38.10;26.40;;;12.20;99.90;;;;;;6276813;22;20198;-90
2022/10/06 10:56:32;;;;;;;37.87;27.27;;;12.30;99.90;;;;;;6279073;22;20578;-90
2022/10/06 10:59:15;;;;;;;37.67;26.53;;;12.30;99.90;;;;;;6281832;22;20179;-90
2022/10/06 11:01:52;;;;;;;44.87;28.20;;;12.40;99.90;;;;;;6287296;22;20179;-90
2022/10/06 11:04:23;;;;;;;48.47;30.50;;;12.40;99.90;;;;;;6274715;22;20178;-91
2022/10/06 11:07:07;;;;;;;54.13;34.20;;;12.50;99.90;;;;;;6304700;22;20182;-91
2022/10/06 11:09:46;;;;;;;73.97;39.63;;;12.50;99.90;;;;;;6304146;22;20183;-91
2022/10/06 11:12:33;;;;;;;74.33;42.27;;;12.50;99.90;;;;;;6300283;22;20211;-91
2022/10/06 11:15:12;;;;;;;73.80;41.77;;;12.60;99.90;;;;;;6289445;22;20198;-90
2022/10/06 11:17:45;;;;;;;82.57;45.63;;;12.60;99.90;;;;;;6282129;22;20223;-90
2022/10/06 11:20:40;;;;;;;76.40;44.90;;;12.70;99.90;;;;;;6280173;22;20182;-90
2022/10/06 11:23:39;;;;;;;73.50;42.37;;;12.70;99.90;;;;;;6281222;22;20163;-90
2022/10/06 11:26:24;;;;;;;79.47;43.53;;;12.80;99.90;;;;;;6279654;22;20175;-91
2022/10/06 11:29:07;;;;;;;76.53;44.83;;;12.80;99.90;;;;;;6280178;22;20632;-90
2022/10/06 11:32:04;;;;;;;89.53;47.67;;;12.80;99.90;;;;;;5076026;27;2290975;-91
2022/10/06 11:34:35;;;;;;;97.63;46.77;;;12.80;99.90;;;;;;5134121;28;20212;-90
2022/10/06 11:37:19;;;;;;;83.63;45.50;;;12.80;99.90;;;;;;5135280;28;20202;-91
2022/10/06 11:39:59;;;;;;;77.67;44.03;;;12.90;99.90;;;;;;5132638;28;20216;-90
2022/10/06 11:42:39;;;;;;;87.50;45.73;;;12.90;99.90;;;;;;5115099;28;20269;-90
2022/10/06 11:45:15;;;;;;;87.63;46.23;;;13.00;99.90;;;;;;5135759;28;20198;-90
2022/10/06 11:48:11;;;;;;;96.40;46.17;;;13.00;99.90;;;;;;5115318;28;20209;-90
2022/10/06 11:50:46;;;;;;;87.73;47.43;;;13.00;99.90;;;;;;5133676;28;20236;-91
2022/10/06 11:53:44;;;;;;;94.10;47.13;;;12.90;99.90;;;;;;5131570;28;20215;-91
2022/10/06 11:56:40;;;;;;;88.27;45.57;;;13.00;99.90;;;;;;5114256;28;20215;-90
2022/10/06 11:59:25;;;;;;;87.63;46.00;;;13.00;99.90;;;;;;5114671;28;20209;-89
2022/10/06 12:01:58;;;;;;;92.83;46.03;;;13.00;99.90;;;;;;5131806;28;20197;-91
2022/10/06 12:04:31;;;;;;;92.07;47.83;;;13.00;99.90;;;;;;5137567;28;20225;-90
2022/10/06 12:07:05;;;;;;;91.90;46.17;;;13.00;99.90;;;;;;5131486;28;20206;-90
2022/10/06 12:10:14;;;;;;;96.40;49.10;;;13.10;99.90;;;;;;5114155;28;20209;-89
2022/10/06 12:12:55;;;;;;;115.63;46.23;;;13.10;99.90;;;;;;5130959;28;20206;-90
2022/10/06 12:16:09;;;;;;;93.40;47.00;;;13.10;99.90;;;;;;5132534;28;20565;-89
2022/10/06 12:19:18;;;;;;;86.37;46.37;;;13.10;99.90;;;;;;5131547;28;20209;-90
2022/10/06 12:21:59;;;;;;;88.67;47.20;;;13.10;99.90;;;;;;5115713;28;20202;-90
2022/10/06 12:24:40;;;;;;;97.23;47.70;;;13.10;99.90;;;;;;5131729;28;20221;-91
2022/10/06 12:27:35;;;;;;;106.93;48.20;;;13.10;99.90;;;;;;5131813;28;20214;-90
2022/10/06 12:30:18;;;;;;;96.10;47.10;;;13.10;99.90;;;;;;5126031;28;20216;-90
2022/10/06 12:32:54;;;;;;;101.97;46.43;;;13.10;99.90;;;;;;5131110;28;20583;-90
2022/10/06 12:35:32;;;;;;;107.50;47.17;;;13.10;99.90;;;;;;5113829;28;20210;-90
2022/10/06 12:38:06;;;;;;;99.20;46.57;;;13.10;99.90;;;;;;5131620;28;20228;-90
2022/10/06 12:40:48;;;;;;;95.50;48.33;;;13.10;99.90;;;;;;5131073;28;20216;-90
2022/10/06 12:43:49;;;;;;;96.47;44.67;;;13.10;99.90;;;;;;5116307;28;20202;-90
2022/10/06 12:46:44;;;;;;;90.10;43.87;;;13.10;99.90;;;;;;5117916;28;20215;-90
2022/10/06 12:49:36;;;;;;;90.50;45.67;;;13.10;99.90;;;;;;5117688;28;20203;-90
2022/10/06 12:52:30;;;;;;;89.33;43.87;;;13.10;99.90;;;;;;5098365;28;20277;-90
2022/10/06 12:55:15;;;;;;;91.00;43.00;;;13.10;99.90;;;;;;5117882;28;20214;-89
2022/10/06 12:57:47;;;;;;;82.07;42.63;;;13.10;99.90;;;;;;5117234;28;20221;-90
2022/10/06 13:00:33;;;;;;;117.23;43.83;;;13.10;99.90;;;;;;5118264;28;20203;-91
2022/10/06 13:03:05;;;;;;;79.77;42.93;;;13.10;99.90;;;;;;5118972;28;20246;-91
2022/10/06 13:05:37;;;;;;;78.43;41.60;;;13.10;99.90;;;;;;5117755;28;20209;-89
2022/10/06 13:08:21;;;;;;;89.67;40.87;;;13.10;99.90;;;;;;5123032;28;20220;-91
2022/10/06 13:11:12;;;;;;;72.97;41.43;;;13.00;99.90;;;;;;5119359;28;20245;-90
2022/10/06 13:13:48;;;;;;;77.97;39.43;;;13.00;99.90;;;;;;5119923;28;20237;-90
2022/10/06 13:16:23;;;;;;;72.07;38.57;;;13.00;99.90;;;;;;5099826;28;20226;-90
2022/10/06 13:18:57;;;;;;;72.37;39.67;;;13.00;99.90;;;;;;5117941;28;20225;-90
2022/10/06 13:21:31;;;;;;;81.67;39.87;;;13.00;99.90;;;;;;5116951;28;20206;-92